createdAt,value
2018-07-05T00:00:03.695Z,5.62
2018-07-05T00:02:51.205Z,4.60
2018-07-05T00:05:38.311Z,5.22
2018-07-05T00:08:25.290Z,5.37
2018-07-05T00:11:12.540Z,5.42
2018-07-05T00:24:46.337Z,6.37
2018-07-05T00:27:32.879Z,6.97
2018-07-05T00:30:19.341Z,7.23
2018-07-05T00:33:05.919Z,7.80
2018-07-05T00:35:52.551Z,8.13
2018-07-05T00:38:39.345Z,9.20
2018-07-05T00:41:26.093Z,10.27
2018-07-05T00:44:12.569Z,9.60
2018-07-05T00:46:59.253Z,10.03
2018-07-05T00:49:45.815Z,11.80
2018-07-05T00:52:32.781Z,9.13
2018-07-05T00:55:19.392Z,7.63
2018-07-05T00:58:05.963Z,7.17
2018-07-05T01:00:52.529Z,6.90
2018-07-05T01:03:39.130Z,6.73
2018-07-05T01:06:26.230Z,5.83
2018-07-05T01:09:13.499Z,5.75
2018-07-05T01:12:00.096Z,5.83
2018-07-05T01:14:46.636Z,5.30
2018-07-05T01:17:33.533Z,6.75
2018-07-05T01:20:20.306Z,6.20
2018-07-05T01:23:07.407Z,6.70
2018-07-05T01:25:54.455Z,5.75
2018-07-05T01:28:41.239Z,5.53
2018-07-05T01:31:27.933Z,6.10
2018-07-05T01:34:08.603Z,5.20
2018-07-05T01:36:55.037Z,6.07
2018-07-05T01:39:41.623Z,5.23
2018-07-05T01:42:28.343Z,5.23
2018-07-05T01:45:14.906Z,7.33
2018-07-05T01:48:01.594Z,6.30
2018-07-05T01:50:48.243Z,6.60
2018-07-05T01:53:34.781Z,8.03
2018-07-05T01:56:21.253Z,6.47
2018-07-05T01:59:07.573Z,7.13
2018-07-05T02:01:53.983Z,8.63
2018-07-05T02:04:40.433Z,6.70
2018-07-05T02:07:27.079Z,6.93
2018-07-05T02:10:13.647Z,7.03
2018-07-05T02:16:35.963Z,8.40
2018-07-05T02:19:23.084Z,5.80
2018-07-05T02:22:10.145Z,5.12
2018-07-05T02:24:57.336Z,4.20
2018-07-05T02:27:44.020Z,5.08
2018-07-05T02:30:30.622Z,4.50
2018-07-05T02:33:17.743Z,4.78
2018-07-05T02:36:04.946Z,3.30
2018-07-05T02:38:57.312Z,3.98
2018-07-05T02:41:43.994Z,3.90
2018-07-05T02:44:31.120Z,3.75
2018-07-05T02:47:18.144Z,3.12
2018-07-05T02:50:05.270Z,4.67
2018-07-05T02:52:52.566Z,3.30
2018-07-05T02:55:39.546Z,4.28
2018-07-05T02:58:26.023Z,2.30
2018-07-05T03:01:13.296Z,1.70
2018-07-05T03:03:59.863Z,5.03
2018-07-05T03:06:46.981Z,2.65
2018-07-05T03:09:33.996Z,2.95
2018-07-05T03:12:21.132Z,2.33
2018-07-05T03:15:07.810Z,2.70
2018-07-05T03:17:54.330Z,2.43
2018-07-05T03:20:41.617Z,1.70
2018-07-05T03:23:28.238Z,1.77
2018-07-05T03:26:14.766Z,2.03
2018-07-05T03:29:01.190Z,2.03
2018-07-05T03:31:48.145Z,1.67
2018-07-05T03:34:34.600Z,1.67
2018-07-05T03:37:21.134Z,1.63
2018-07-05T03:40:08.102Z,1.30
2018-07-05T03:42:54.896Z,4.07
2018-07-05T03:45:41.554Z,1.33
2018-07-05T03:48:28.355Z,1.50
2018-07-05T03:51:14.812Z,2.10
2018-07-05T03:54:01.344Z,1.70
2018-07-05T03:56:47.869Z,1.83
2018-07-05T03:59:34.300Z,1.80
2018-07-05T04:02:21.364Z,3.30
2018-07-05T04:05:08.487Z,1.98
2018-07-05T04:07:55.794Z,2.00
2018-07-05T04:10:43.126Z,1.98
2018-07-05T04:13:30.126Z,2.17
2018-07-05T04:16:17.794Z,2.17
2018-07-05T04:18:59.162Z,2.15
2018-07-05T04:21:46.129Z,2.20
2018-07-05T04:24:32.672Z,1.67
2018-07-05T04:27:19.636Z,2.55
2018-07-05T04:30:06.713Z,2.98
2018-07-05T04:32:53.350Z,5.80
2018-07-05T04:35:39.966Z,7.22
2018-07-05T04:38:27.245Z,3.98
2018-07-05T04:41:14.369Z,6.85
2018-07-05T04:44:01.007Z,8.47
2018-07-05T04:46:47.988Z,7.53
2018-07-05T04:49:34.555Z,8.00
2018-07-05T04:52:21.213Z,4.03
2018-07-05T04:55:07.896Z,4.80
2018-07-05T04:57:54.428Z,2.77
2018-07-05T05:00:41.110Z,3.73
2018-07-05T05:03:27.888Z,2.83
2018-07-05T05:06:14.450Z,3.43
2018-07-05T05:09:01.032Z,4.77
2018-07-05T05:11:47.659Z,3.07
2018-07-05T05:14:34.625Z,3.97
2018-07-05T05:17:21.154Z,4.00
2018-07-05T05:20:08.136Z,2.35
2018-07-05T05:22:54.828Z,2.50
2018-07-05T05:25:41.396Z,4.53
2018-07-05T05:28:28.062Z,3.42
2018-07-05T05:31:14.772Z,2.63
2018-07-05T05:33:55.292Z,3.80
2018-07-05T05:36:42.082Z,2.87
2018-07-05T05:39:29.303Z,3.35
2018-07-05T05:42:16.730Z,3.15
2018-07-05T05:45:03.878Z,2.60
2018-07-05T05:47:50.557Z,2.65
2018-07-05T05:50:37.167Z,2.25
2018-07-05T05:53:24.732Z,2.60
2018-07-05T05:56:11.278Z,2.50
2018-07-05T05:58:58.460Z,2.33
2018-07-05T06:01:45.362Z,2.65
2018-07-05T06:04:32.137Z,5.08
2018-07-05T06:07:19.257Z,3.50
2018-07-05T06:10:06.375Z,2.65
2018-07-05T06:12:53.829Z,2.15
2018-07-05T06:15:40.389Z,3.50
2018-07-05T06:18:26.990Z,2.60
2018-07-05T06:21:14.433Z,2.52
2018-07-05T06:24:01.871Z,3.42
2018-07-05T06:26:48.417Z,3.60
2018-07-05T06:29:35.041Z,4.50
2018-07-05T06:32:21.781Z,4.00
2018-07-05T06:35:08.543Z,4.57
2018-07-05T06:37:54.995Z,4.07
2018-07-05T06:40:41.491Z,4.53
2018-07-05T06:43:27.929Z,5.33
2018-07-05T06:46:14.799Z,5.13
2018-07-05T06:49:01.831Z,4.33
2018-07-05T06:51:48.459Z,4.73
2018-07-05T06:54:35.075Z,6.63
2018-07-05T06:57:21.688Z,5.80
2018-07-05T07:00:08.173Z,5.33
2018-07-05T07:02:54.811Z,4.17
2018-07-05T07:05:41.391Z,3.90
2018-07-05T07:08:28.320Z,6.20
2018-07-05T07:11:14.725Z,7.97
2018-07-05T07:14:01.561Z,4.00
2018-07-05T07:16:48.605Z,5.12
2018-07-05T07:19:35.773Z,3.75
2018-07-05T07:22:22.808Z,3.72
2018-07-05T07:25:09.954Z,3.17
2018-07-05T07:27:57.404Z,2.50
2018-07-05T07:30:44.491Z,2.60
2018-07-05T07:33:31.611Z,3.05
2018-07-05T07:36:18.639Z,3.42
2018-07-05T07:39:06.015Z,2.52
2018-07-05T07:41:46.267Z,2.47
2018-07-05T07:44:15.397Z,2.47
2018-07-05T07:46:44.267Z,2.70
2018-07-05T07:49:12.845Z,2.20
2018-07-05T07:51:41.344Z,2.67
2018-07-05T07:54:09.865Z,4.85
2018-07-05T07:56:38.351Z,2.77
2018-07-05T07:59:06.880Z,3.92
2018-07-05T08:01:35.408Z,4.47
2018-07-05T08:04:03.895Z,2.75
2018-07-05T08:06:32.379Z,2.58
2018-07-05T08:09:00.893Z,3.17
2018-07-05T08:11:29.379Z,2.85
2018-07-05T08:13:58.831Z,2.70
2018-07-05T08:16:27.305Z,3.15
2018-07-05T08:18:55.799Z,3.22
2018-07-05T08:21:24.281Z,3.75
2018-07-05T08:23:52.765Z,3.47
2018-07-05T08:26:21.239Z,3.02
2018-07-05T08:28:50.057Z,2.80
2018-07-05T08:31:18.559Z,3.10
2018-07-05T08:33:47.211Z,4.20
2018-07-05T08:36:15.810Z,6.72
2018-07-05T08:38:44.314Z,5.22
2018-07-05T08:41:12.837Z,6.08
2018-07-05T08:43:41.342Z,4.78
2018-07-05T08:46:09.832Z,7.83
2018-07-05T08:48:38.329Z,5.60
2018-07-05T08:51:06.881Z,3.92
2018-07-05T08:53:35.527Z,3.87
2018-07-05T08:56:04.065Z,5.95
2018-07-05T08:58:32.534Z,3.50
2018-07-05T09:01:01.038Z,3.90
2018-07-05T09:03:29.522Z,2.90
2018-07-05T09:05:57.980Z,2.80
2018-07-05T09:08:26.454Z,2.92
2018-07-05T09:10:54.946Z,3.10
2018-07-05T09:13:23.420Z,3.45
2018-07-05T09:15:51.924Z,3.00
2018-07-05T09:18:20.489Z,6.37
2018-07-05T09:20:49.486Z,2.87
2018-07-05T09:23:18.104Z,3.27
2018-07-05T09:25:46.686Z,3.30
2018-07-05T09:28:15.214Z,2.98
2018-07-05T09:30:43.690Z,3.47
2018-07-05T09:33:12.135Z,2.35
2018-07-05T09:35:40.742Z,3.45
2018-07-05T09:38:09.249Z,3.95
2018-07-05T09:40:37.763Z,3.25
2018-07-05T09:43:06.327Z,3.25
2018-07-05T09:45:34.859Z,3.72
2018-07-05T09:48:03.354Z,3.30
2018-07-05T09:50:31.844Z,3.37
2018-07-05T09:53:00.370Z,4.53
2018-07-05T09:55:28.893Z,3.95
2018-07-05T09:57:57.419Z,3.60
2018-07-05T10:00:32.036Z,3.62
2018-07-05T10:03:00.535Z,3.35
2018-07-05T10:05:29.100Z,3.50
2018-07-05T10:07:57.583Z,4.03
2018-07-05T10:10:26.085Z,4.67
2018-07-05T10:12:54.805Z,3.72
2018-07-05T10:15:23.243Z,3.80
2018-07-05T10:17:51.810Z,3.92
2018-07-05T10:20:21.138Z,3.80
2018-07-05T10:22:49.652Z,5.10
2018-07-05T10:25:18.396Z,4.72
2018-07-05T10:27:46.860Z,3.77
2018-07-05T10:30:33.882Z,4.10
2018-07-05T10:33:20.974Z,4.35
2018-07-05T10:35:49.454Z,4.40
2018-07-05T10:38:18.030Z,7.40
2018-07-05T10:41:04.965Z,4.15
2018-07-05T10:43:52.002Z,4.87
2018-07-05T10:46:39.262Z,4.22
2018-07-05T10:49:26.270Z,3.50
2018-07-05T10:52:13.512Z,3.60
2018-07-05T10:55:00.620Z,4.05
2018-07-05T10:57:47.668Z,7.17
2018-07-05T11:00:35.728Z,4.20
2018-07-05T11:03:22.811Z,5.33
2018-07-05T11:06:09.881Z,4.05
2018-07-05T11:08:56.922Z,4.10
2018-07-05T11:11:43.910Z,4.17
2018-07-05T11:14:31.020Z,3.87
2018-07-05T11:17:18.402Z,4.30
2018-07-05T11:20:05.456Z,4.15
2018-07-05T11:22:52.720Z,4.42
2018-07-05T11:25:39.935Z,4.22
2018-07-05T11:28:27.018Z,4.17
2018-07-05T11:31:14.044Z,4.50
2018-07-05T11:34:01.004Z,4.75
2018-07-05T11:36:48.064Z,4.28
2018-07-05T11:39:35.005Z,3.98
2018-07-05T11:42:22.226Z,4.12
2018-07-05T11:45:09.639Z,5.33
2018-07-05T11:47:57.252Z,3.45
2018-07-05T11:50:44.634Z,4.17
2018-07-05T11:53:31.748Z,4.20
2018-07-05T11:56:19.826Z,4.10
2018-07-05T11:59:06.878Z,5.35
2018-07-05T12:01:54.057Z,4.35
2018-07-05T12:04:41.436Z,4.00
2018-07-05T12:07:28.872Z,4.03
2018-07-05T12:10:15.878Z,4.12
2018-07-05T12:13:02.932Z,3.80
2018-07-05T12:15:50.756Z,4.10
2018-07-05T12:18:38.033Z,3.50
2018-07-05T12:21:24.865Z,4.10
2018-07-05T12:24:11.924Z,4.08
2018-07-05T12:26:59.128Z,4.47
2018-07-05T12:29:46.229Z,4.37
2018-07-05T12:32:33.430Z,4.42
2018-07-05T12:35:20.876Z,4.60
2018-07-05T12:38:08.286Z,3.98
2018-07-05T12:40:55.569Z,4.47
2018-07-05T12:43:42.818Z,4.60
2018-07-05T12:46:30.128Z,4.33
2018-07-05T12:49:17.498Z,4.28
2018-07-05T12:52:04.573Z,4.03
2018-07-05T12:54:51.684Z,4.45
2018-07-05T12:57:39.003Z,3.87
2018-07-05T13:00:26.347Z,4.22
2018-07-05T13:03:13.362Z,4.12
2018-07-05T13:06:00.567Z,4.03
2018-07-05T13:08:47.814Z,4.35
2018-07-05T13:11:35.270Z,4.83
2018-07-05T13:14:23.015Z,4.10
2018-07-05T13:17:10.065Z,3.30
2018-07-05T13:19:57.279Z,3.72
2018-07-05T13:22:44.501Z,5.65
2018-07-05T13:25:31.962Z,4.80
2018-07-05T13:28:19.058Z,3.55
2018-07-05T13:31:06.221Z,3.98
2018-07-05T13:33:53.499Z,4.67
2018-07-05T13:36:40.655Z,3.92
2018-07-05T13:39:27.863Z,4.50
2018-07-05T13:42:15.401Z,3.95
2018-07-05T13:45:02.627Z,5.72
2018-07-05T13:47:49.825Z,4.50
2018-07-05T13:50:36.855Z,4.70
2018-07-05T13:53:24.133Z,4.67
2018-07-05T13:56:11.259Z,4.25
2018-07-05T13:58:58.373Z,4.25
2018-07-05T14:01:46.476Z,4.60
2018-07-05T14:04:33.817Z,5.00
2018-07-05T14:07:20.863Z,5.33
2018-07-05T14:10:07.995Z,5.33
2018-07-05T14:12:55.176Z,7.50
2018-07-05T14:15:42.193Z,5.35
2018-07-05T14:18:29.155Z,6.40
2018-07-05T14:21:16.497Z,3.95
2018-07-05T14:24:03.694Z,5.47
2018-07-05T14:26:50.793Z,4.78
2018-07-05T14:29:37.875Z,4.85
2018-07-05T14:32:24.944Z,6.05
2018-07-05T14:35:12.115Z,3.85
2018-07-05T14:37:59.213Z,4.05
2018-07-05T14:40:46.435Z,4.75
2018-07-05T14:43:33.929Z,3.75
2018-07-05T14:46:20.953Z,3.35
2018-07-05T14:49:08.173Z,2.90
2018-07-05T14:51:55.309Z,2.70
2018-07-05T14:54:42.513Z,5.05
2018-07-05T14:57:29.489Z,3.00
2018-07-05T15:00:17.049Z,2.92
2018-07-05T15:03:04.212Z,4.67
2018-07-05T15:05:51.436Z,2.90
2018-07-05T15:08:38.905Z,2.10
2018-07-05T15:11:26.148Z,3.72
2018-07-05T15:14:14.654Z,2.33
2018-07-05T15:17:01.793Z,2.22
2018-07-05T15:19:48.583Z,2.50
2018-07-05T15:22:35.780Z,3.20
2018-07-05T15:25:22.853Z,3.30
2018-07-05T15:28:09.934Z,3.15
2018-07-05T15:30:57.206Z,4.80
2018-07-05T15:33:44.230Z,4.45
2018-07-05T15:36:31.402Z,3.50
2018-07-05T15:39:18.728Z,3.87
2018-07-05T15:42:05.712Z,4.17
2018-07-05T15:44:53.003Z,4.17
2018-07-05T15:47:39.997Z,4.08
2018-07-05T15:50:27.152Z,3.92
2018-07-05T15:53:14.366Z,4.15
2018-07-05T15:56:01.729Z,4.80
2018-07-05T15:58:48.723Z,6.35
2018-07-05T16:01:35.697Z,4.05
2018-07-05T16:04:24.326Z,4.20
2018-07-05T16:07:11.288Z,4.40
2018-07-05T16:09:58.715Z,5.08
2018-07-05T16:12:46.472Z,4.65
2018-07-05T16:15:33.574Z,5.42
2018-07-05T16:18:20.617Z,4.35
2018-07-05T16:21:07.626Z,5.15
2018-07-05T16:23:54.708Z,5.10
2018-07-05T16:26:42.989Z,4.20
2018-07-05T16:29:30.214Z,3.87
2018-07-05T16:32:17.238Z,4.30
2018-07-05T16:35:04.476Z,3.47
2018-07-05T16:37:51.548Z,5.03
2018-07-05T16:40:38.626Z,5.30
2018-07-05T16:43:25.669Z,3.80
2018-07-05T16:46:13.076Z,3.95
2018-07-05T16:49:00.210Z,3.62
2018-07-05T16:51:47.408Z,3.27
2018-07-05T16:54:34.480Z,3.98
2018-07-05T16:57:22.334Z,3.30
2018-07-05T17:00:09.724Z,3.22
2018-07-05T17:02:57.062Z,3.42
2018-07-05T17:05:44.455Z,3.50
2018-07-05T17:08:31.596Z,3.10
2018-07-05T17:11:18.813Z,2.90
2018-07-05T17:14:05.910Z,3.58
2018-07-05T17:16:53.069Z,4.30
2018-07-05T17:19:40.299Z,2.90
2018-07-05T17:22:27.354Z,13.62
2018-07-05T17:25:14.525Z,3.10
2018-07-05T17:28:01.693Z,2.85
2018-07-05T17:30:48.812Z,2.77
2018-07-05T17:33:35.994Z,2.80
2018-07-05T17:36:23.191Z,2.98
2018-07-05T17:39:10.573Z,2.80
2018-07-05T17:41:57.925Z,3.17
2018-07-05T17:44:45.148Z,2.77
2018-07-05T17:47:32.362Z,2.70
2018-07-05T17:50:19.499Z,2.80
2018-07-05T17:53:06.604Z,2.80
2018-07-05T17:55:54.036Z,2.75
2018-07-05T17:58:41.593Z,2.47
2018-07-05T18:01:29.235Z,2.80
2018-07-05T18:04:16.300Z,2.42
2018-07-05T18:07:03.323Z,3.00
2018-07-05T18:09:50.250Z,3.30
2018-07-05T18:12:37.307Z,4.35
2018-07-05T18:15:25.196Z,2.70
2018-07-05T18:18:12.156Z,3.12
2018-07-05T18:20:59.655Z,2.80
2018-07-05T18:23:47.148Z,2.80
2018-07-05T18:26:34.162Z,2.80
2018-07-05T18:29:21.211Z,3.12
2018-07-05T18:32:08.325Z,3.08
2018-07-05T18:34:55.457Z,8.73
2018-07-05T18:37:43.160Z,4.53
2018-07-05T18:40:30.330Z,3.75
2018-07-05T18:43:18.080Z,3.77
2018-07-05T18:46:05.503Z,3.85
2018-07-05T18:48:52.585Z,4.87
2018-07-05T18:51:38.916Z,3.02
2018-07-05T18:54:25.810Z,2.73
2018-07-05T18:57:12.142Z,6.37
2018-07-05T18:59:58.682Z,3.23
2018-07-05T19:02:45.148Z,4.93
2018-07-05T19:05:31.671Z,2.97
2018-07-05T19:08:18.429Z,2.97
2018-07-05T19:11:05.036Z,2.93
2018-07-05T19:13:51.763Z,2.73
2018-07-05T19:16:38.543Z,2.30
2018-07-05T19:19:25.114Z,2.87
2018-07-05T19:22:11.756Z,1.70
2018-07-05T19:24:58.256Z,2.17
2018-07-05T19:27:44.992Z,3.93
2018-07-05T19:30:31.488Z,1.80
2018-07-05T19:33:18.297Z,1.83
2018-07-05T19:36:05.628Z,1.67
2018-07-05T19:38:52.368Z,2.00
2018-07-05T19:41:38.962Z,4.13
2018-07-05T19:44:25.763Z,2.00
2018-07-05T19:50:47.986Z,1.97
2018-07-05T19:53:34.415Z,2.07
2018-07-05T19:56:20.879Z,1.40
2018-07-05T19:59:07.807Z,1.60
2018-07-05T20:01:54.701Z,1.57
2018-07-05T20:04:41.077Z,1.20
2018-07-05T20:07:27.719Z,1.00
2018-07-05T20:10:14.326Z,1.30
2018-07-05T20:13:00.807Z,2.97
2018-07-05T20:15:47.333Z,2.03
2018-07-05T20:18:33.912Z,1.30
2018-07-05T20:21:20.487Z,1.10
2018-07-05T20:24:07.319Z,1.77
2018-07-05T20:26:53.923Z,1.10
2018-07-05T20:29:40.508Z,1.23
2018-07-05T20:32:27.037Z,2.27
2018-07-05T20:35:13.884Z,1.70
2018-07-05T20:38:00.501Z,2.10
2018-07-05T20:40:47.251Z,1.60
2018-07-05T20:43:34.000Z,1.33
2018-07-05T20:46:20.572Z,2.47
2018-07-05T20:49:07.111Z,2.77
2018-07-05T20:51:53.818Z,2.70
2018-07-05T20:54:40.228Z,3.07
2018-07-05T20:57:26.878Z,1.90
2018-07-05T21:00:13.363Z,3.27
2018-07-05T21:02:59.964Z,1.57
2018-07-05T21:05:46.580Z,1.20
2018-07-05T21:08:33.396Z,1.83
2018-07-05T21:11:19.992Z,2.20
2018-07-05T21:14:06.598Z,4.00
2018-07-05T21:16:53.514Z,1.83
2018-07-05T21:19:40.250Z,1.60
2018-07-05T21:22:26.778Z,2.57
2018-07-05T21:25:13.826Z,1.90
2018-07-05T21:28:00.256Z,2.77
2018-07-05T21:30:46.616Z,1.83
2018-07-05T21:33:33.222Z,1.77
2018-07-05T21:36:19.647Z,1.73
2018-07-05T21:39:06.686Z,1.73
2018-07-05T21:41:53.257Z,1.30
2018-07-05T21:44:40.024Z,7.87
2018-07-05T21:47:26.676Z,1.93
2018-07-05T21:50:13.420Z,2.20
2018-07-05T21:53:00.757Z,1.80
2018-07-05T21:55:47.262Z,2.33
2018-07-05T21:58:33.825Z,2.40
2018-07-05T22:01:20.437Z,2.80
2018-07-05T22:04:07.127Z,4.00
2018-07-05T22:06:53.788Z,1.77
2018-07-05T22:09:40.103Z,1.57
2018-07-05T22:12:26.655Z,2.13
2018-07-05T22:15:13.277Z,2.10
2018-07-05T22:18:05.347Z,1.40
2018-07-05T22:20:57.095Z,2.13
2018-07-05T22:23:48.742Z,1.67
2018-07-05T22:26:40.435Z,1.67
2018-07-05T22:29:32.207Z,2.10
2018-07-05T22:32:18.925Z,1.40
2018-07-05T22:35:05.625Z,1.37
2018-07-05T22:37:52.132Z,1.73
2018-07-05T22:40:38.713Z,1.60
2018-07-05T22:43:25.231Z,3.00
2018-07-05T22:46:11.830Z,2.33
2018-07-05T22:48:58.390Z,1.67
2018-07-05T22:51:45.053Z,1.97
2018-07-05T22:54:34.539Z,4.63
2018-07-05T22:57:21.291Z,1.97
2018-07-05T23:00:08.686Z,1.50
2018-07-05T23:02:55.288Z,1.70
2018-07-05T23:05:41.677Z,3.53
2018-07-05T23:08:28.269Z,2.90
2018-07-05T23:11:14.757Z,2.60
2018-07-05T23:14:01.234Z,5.00
2018-07-05T23:16:47.531Z,2.57
2018-07-05T23:19:34.106Z,4.83
2018-07-05T23:22:20.463Z,3.20
2018-07-05T23:25:07.113Z,4.03
2018-07-05T23:27:53.619Z,2.40
2018-07-05T23:30:40.279Z,1.93
2018-07-05T23:33:26.811Z,2.50
2018-07-05T23:36:13.321Z,4.30
2018-07-05T23:38:59.937Z,3.40
2018-07-05T23:41:46.533Z,2.00
2018-07-05T23:44:33.035Z,4.90
2018-07-05T23:47:19.479Z,3.17
2018-07-05T23:50:05.885Z,2.80
2018-07-05T23:52:52.679Z,3.13
2018-07-05T23:55:39.301Z,2.90
2018-07-05T23:58:25.799Z,3.53
